createdAt,value
2023-02-14T00:00:35.153Z,97266
2023-02-14T00:01:37.392Z,97259
2023-02-14T00:02:40.291Z,97261.9
2023-02-14T00:03:42.907Z,97261.6
2023-02-14T00:04:45.383Z,97266.5
2023-02-14T00:05:48.036Z,97261.1
2023-02-14T00:06:50.569Z,97257.9
2023-02-14T00:07:53.343Z,97260
2023-02-14T00:08:55.595Z,97261.6
2023-02-14T00:09:58.122Z,97266.7
2023-02-14T00:11:01.595Z,97266.3
2023-02-14T00:12:03.844Z,97265
2023-02-14T00:13:06.069Z,97265.3
2023-02-14T00:14:08.556Z,97267.3
2023-02-14T00:15:11.058Z,97263.5
2023-02-14T00:16:13.594Z,97263.7
2023-02-14T00:17:16.226Z,97266
2023-02-14T00:19:23.684Z,97265.5
2023-02-14T00:20:25.656Z,97265.9
2023-02-14T00:21:28.178Z,97263.2
2023-02-14T00:22:30.678Z,97268.9
2023-02-14T00:23:32.893Z,97271.6
2023-02-14T00:24:34.852Z,97274.8
2023-02-14T00:25:37.402Z,97270
2023-02-14T00:26:39.919Z,97275.8
2023-02-14T00:27:42.419Z,97273.5
2023-02-14T00:28:44.734Z,97268.8
2023-02-14T00:29:47.281Z,97270.7
2023-02-14T00:30:49.810Z,97273.9
2023-02-14T00:31:52.692Z,97272.9
2023-02-14T00:32:55.361Z,97272.4
2023-02-14T00:33:57.880Z,97272
2023-02-14T00:35:00.134Z,97275
2023-02-14T00:36:02.666Z,97273.5
2023-02-14T00:37:05.086Z,97274.3
2023-02-14T00:38:07.621Z,97279.1
2023-02-14T00:39:09.990Z,97279.8
2023-02-14T00:40:12.229Z,97279.5
2023-02-14T00:41:14.770Z,97271.2
2023-02-14T00:42:17.034Z,97276.5
2023-02-14T00:43:19.282Z,97273.8
2023-02-14T00:44:21.805Z,97276.3
2023-02-14T00:45:24.488Z,97277
2023-02-14T00:46:26.799Z,97280.2
2023-02-14T00:47:29.417Z,97275.8
2023-02-14T00:48:31.656Z,97278.6
2023-02-14T00:49:34.161Z,97277.9
2023-02-14T00:50:36.384Z,97277.6
2023-02-14T00:51:38.868Z,97275.6
2023-02-14T00:52:41.387Z,97275.2
2023-02-14T00:53:43.891Z,97278.8
2023-02-14T00:54:46.460Z,97280.4
2023-02-14T00:55:48.737Z,97273.8
2023-02-14T00:56:50.722Z,97274.9
2023-02-14T00:57:52.986Z,97276
2023-02-14T00:58:55.561Z,97272.3
2023-02-14T00:59:58.056Z,97271.5
2023-02-14T01:01:02.261Z,97269.6
2023-02-14T01:02:05.216Z,97265.8
2023-02-14T01:03:08.029Z,97268.4
2023-02-14T01:04:10.525Z,97272.1
2023-02-14T01:05:12.773Z,97266.5
2023-02-14T01:06:15.294Z,97267.1
2023-02-14T01:07:17.811Z,97275.8
2023-02-14T01:08:20.312Z,97274.8
2023-02-14T01:09:22.558Z,97276.8
2023-02-14T01:10:24.502Z,97282.4
2023-02-14T01:11:30.288Z,97279.5
2023-02-14T01:12:32.884Z,97282.5
2023-02-14T01:13:35.398Z,97279.1
2023-02-14T01:14:37.911Z,97284.6
2023-02-14T01:15:40.396Z,97285.8
2023-02-14T01:16:42.860Z,97277.5
2023-02-14T01:17:45.264Z,97284.8
2023-02-14T01:18:47.911Z,97283.2
2023-02-14T01:19:50.147Z,97281.8
2023-02-14T01:20:52.371Z,97289.3
2023-02-14T01:21:54.332Z,97285.7
2023-02-14T01:22:56.559Z,97280.9
2023-02-14T01:23:58.763Z,97280
2023-02-14T01:25:01.253Z,97280.9
2023-02-14T01:26:03.786Z,97273
2023-02-14T01:27:05.993Z,97270.5
2023-02-14T01:28:07.949Z,97272.8
2023-02-14T01:29:10.525Z,97270.3
2023-02-14T01:30:13.370Z,97272.8
2023-02-14T01:31:16.670Z,97268.8
2023-02-14T01:32:19.735Z,97272.4
2023-02-14T01:33:22.452Z,97274.8
2023-02-14T01:34:25.078Z,97275.5
2023-02-14T01:35:27.631Z,97278.3
2023-02-14T01:36:29.858Z,97277
2023-02-14T01:37:32.374Z,97273.2
2023-02-14T01:38:34.592Z,97272.1
2023-02-14T01:39:37.081Z,97268.3
2023-02-14T01:40:39.574Z,97265.5
2023-02-14T01:41:41.842Z,97269.6
2023-02-14T01:42:44.052Z,97268.7
2023-02-14T01:43:46.322Z,97269.7
2023-02-14T01:44:48.573Z,97274.7
2023-02-14T01:45:51.266Z,97274
2023-02-14T01:46:53.837Z,97278.4
2023-02-14T01:47:56.334Z,97278.2
2023-02-14T01:48:58.594Z,97276
2023-02-14T01:50:00.940Z,97277
2023-02-14T01:51:03.798Z,97278.5
2023-02-14T01:52:06.017Z,97277.8
2023-02-14T01:53:08.515Z,97277.3
2023-02-14T01:54:10.735Z,97275.6
2023-02-14T01:55:12.446Z,97274.7
2023-02-14T01:56:14.978Z,97274.9
2023-02-14T01:57:17.235Z,97274.4
2023-02-14T01:58:19.462Z,97268.7
2023-02-14T01:59:21.731Z,97269.8
2023-02-14T02:00:24.246Z,97274.6
2023-02-14T02:01:27.168Z,97271.7
2023-02-14T02:02:30.116Z,97271.6
2023-02-14T02:03:32.685Z,97271.8
2023-02-14T02:04:35.186Z,97271.1
2023-02-14T02:05:37.811Z,97265.9
2023-02-14T02:06:40.308Z,97273.9
2023-02-14T02:07:42.804Z,97277.4
2023-02-14T02:08:44.746Z,97278.2
2023-02-14T02:09:46.981Z,97280
2023-02-14T02:10:49.495Z,97277.3
2023-02-14T02:11:51.726Z,97277.3
2023-02-14T02:12:54.363Z,97281.8
2023-02-14T02:13:56.895Z,97279.4
2023-02-14T02:14:59.405Z,97278
2023-02-14T02:16:01.479Z,97276
2023-02-14T02:17:04.109Z,97274.6
2023-02-14T02:18:06.622Z,97272.6
2023-02-14T02:19:08.824Z,97273.6
2023-02-14T02:20:11.352Z,97274.7
2023-02-14T02:21:13.981Z,97271.8
2023-02-14T02:22:15.955Z,97273.1
2023-02-14T02:23:18.448Z,97271.6
2023-02-14T02:24:20.951Z,97278
2023-02-14T02:25:23.450Z,97281.5
2023-02-14T02:26:25.953Z,97281.9
2023-02-14T02:27:28.152Z,97284.6
2023-02-14T02:28:30.659Z,97278.8
2023-02-14T02:29:33.212Z,97273.3
2023-02-14T02:30:36.796Z,97274.9
2023-02-14T02:31:40.105Z,97273.8
2023-02-14T02:32:42.265Z,97272.8
2023-02-14T02:33:44.744Z,97271.8
2023-02-14T02:34:46.996Z,97272.7
2023-02-14T02:35:49.226Z,97268.6
2023-02-14T02:36:51.802Z,97267.8
2023-02-14T02:37:54.334Z,97266.4
2023-02-14T02:38:56.022Z,97264.6
2023-02-14T02:39:58.001Z,97262.4
2023-02-14T02:41:02.116Z,97263.6
2023-02-14T02:42:04.690Z,97265.1
2023-02-14T02:43:07.198Z,97269.4
2023-02-14T02:44:09.738Z,97264
2023-02-14T02:45:12.224Z,97265.5
2023-02-14T02:46:15.222Z,97266.7
2023-02-14T02:47:17.779Z,97269
2023-02-14T02:48:20.002Z,97263.5
2023-02-14T02:49:22.495Z,97258
2023-02-14T02:50:24.725Z,97256.3
2023-02-14T02:51:27.243Z,97254.3
2023-02-14T02:52:29.536Z,97253.8
2023-02-14T02:53:31.770Z,97254.6
2023-02-14T02:54:34.283Z,97252.3
2023-02-14T02:55:36.781Z,97252
2023-02-14T02:56:39.018Z,97246.8
2023-02-14T02:57:41.241Z,97252.7
2023-02-14T02:58:43.179Z,97247.7
2023-02-14T02:59:45.417Z,97244.7
2023-02-14T03:00:47.381Z,97244.3
2023-02-14T03:01:50.287Z,97239.7
2023-02-14T03:02:52.929Z,97241.8
2023-02-14T03:03:55.410Z,97244.9
2023-02-14T03:04:58.123Z,97247.7
2023-02-14T03:06:00.410Z,97248
2023-02-14T03:07:02.899Z,97249.6
2023-02-14T03:08:05.495Z,97247.4
2023-02-14T03:09:07.991Z,97249.7
2023-02-14T03:10:10.243Z,97251.8
2023-02-14T03:11:12.732Z,97246.6
2023-02-14T03:12:14.913Z,97244.6
2023-02-14T03:13:17.142Z,97240.9
2023-02-14T03:14:19.320Z,97240.4
2023-02-14T03:15:21.832Z,97240.3
2023-02-14T03:16:23.793Z,97239.1
2023-02-14T03:17:25.790Z,97242.8
2023-02-14T03:18:28.052Z,97241.5
2023-02-14T03:19:30.261Z,97246.6
2023-02-14T03:20:32.761Z,97239
2023-02-14T03:21:34.994Z,97244.9
2023-02-14T03:22:37.220Z,97249.9
2023-02-14T03:23:39.805Z,97249.8
2023-02-14T03:24:42.308Z,97256
2023-02-14T03:25:44.246Z,97256.4
2023-02-14T03:26:46.475Z,97261.6
2023-02-14T03:27:48.691Z,97261.5
2023-02-14T03:28:51.183Z,97263
2023-02-14T03:29:54.018Z,97261.2
2023-02-14T03:30:57.146Z,97256.9
2023-02-14T03:32:01.000Z,97254.3
2023-02-14T03:33:03.951Z,97251.9
2023-02-14T03:34:06.542Z,97248.3
2023-02-14T03:35:09.084Z,97254.4
2023-02-14T03:36:11.653Z,97252.2
2023-02-14T03:37:13.862Z,97249.8
2023-02-14T03:38:16.108Z,97252.1
2023-02-14T03:39:18.662Z,97250.4
2023-02-14T03:40:20.884Z,97251.7
2023-02-14T03:41:23.130Z,97255.8
2023-02-14T03:42:25.348Z,97260.3
2023-02-14T03:43:27.848Z,97255.5
2023-02-14T03:44:30.078Z,97255.1
2023-02-14T03:45:32.664Z,97255.3
2023-02-14T03:46:35.148Z,97253.4
2023-02-14T03:47:37.186Z,97251.7
2023-02-14T03:48:39.463Z,97251.7
2023-02-14T03:49:41.973Z,97250
2023-02-14T03:50:44.483Z,97248.4
2023-02-14T03:51:46.713Z,97249.6
2023-02-14T03:52:49.217Z,97252.7
2023-02-14T03:53:51.723Z,97253.4
2023-02-14T03:54:54.464Z,97260.2
2023-02-14T03:55:57.074Z,97254.1
2023-02-14T03:56:59.083Z,97255.3
2023-02-14T03:58:01.633Z,97260.9
2023-02-14T03:59:03.889Z,97260.7
2023-02-14T04:00:06.217Z,97269
2023-02-14T04:01:08.727Z,97268.7
2023-02-14T04:02:11.315Z,97271.2
2023-02-14T04:03:14.124Z,97269.3
2023-02-14T04:04:16.826Z,97263.9
2023-02-14T04:05:19.352Z,97262.6
2023-02-14T04:06:21.310Z,97268.2
2023-02-14T04:07:23.813Z,97263.3
2023-02-14T04:08:26.403Z,97261.5
2023-02-14T04:09:28.610Z,97256.9
2023-02-14T04:10:31.195Z,97262.9
2023-02-14T04:11:33.424Z,97260.9
2023-02-14T04:13:40.640Z,97267.3
2023-02-14T04:14:42.585Z,97266.9
2023-02-14T04:15:45.080Z,97265.3
2023-02-14T04:16:47.387Z,97261
2023-02-14T04:17:49.660Z,97261
2023-02-14T04:18:51.869Z,97258
2023-02-14T04:19:54.120Z,97257
2023-02-14T04:20:56.709Z,97254.9
2023-02-14T04:21:59.618Z,97254.6
2023-02-14T04:24:07.102Z,97252.1
2023-02-14T04:25:09.405Z,97253.1
2023-02-14T04:26:12.022Z,97254.7
2023-02-14T04:27:13.957Z,97257
2023-02-14T04:28:16.169Z,97254.5
2023-02-14T04:29:18.393Z,97260.6
2023-02-14T04:30:21.166Z,97262.1
2023-02-14T04:31:24.096Z,97260.8
2023-02-14T04:32:27.121Z,97265.6
2023-02-14T04:33:29.597Z,97266.7
2023-02-14T04:34:32.133Z,97270.6
2023-02-14T04:35:34.386Z,97274.7
2023-02-14T04:36:36.661Z,97266.5
2023-02-14T04:37:38.877Z,97263.2
2023-02-14T04:38:41.132Z,97264.1
2023-02-14T04:39:43.366Z,97258.3
2023-02-14T04:40:45.894Z,97256.4
2023-02-14T04:41:48.499Z,97254.3
2023-02-14T04:42:50.738Z,97256.1
2023-02-14T04:43:53.245Z,97254.8
2023-02-14T04:44:55.782Z,97255
2023-02-14T04:45:57.726Z,97252.3
2023-02-14T04:47:00.224Z,97251.1
2023-02-14T04:48:02.441Z,97253.6
2023-02-14T04:49:04.724Z,97251.6
2023-02-14T04:50:07.261Z,97248.3
2023-02-14T04:51:09.859Z,97252.9
2023-02-14T04:52:12.388Z,97248.2
2023-02-14T04:53:14.889Z,97246.9
2023-02-14T04:54:17.093Z,97244.9
2023-02-14T04:55:19.321Z,97246.8
2023-02-14T04:56:21.839Z,97241.8
2023-02-14T04:57:24.438Z,97242.1
2023-02-14T04:58:26.411Z,97243
2023-02-14T04:59:28.942Z,97237.6
2023-02-14T05:00:31.612Z,97239.1
2023-02-14T05:01:34.209Z,97237.9
2023-02-14T05:02:36.711Z,97234.1
2023-02-14T05:03:38.686Z,97230.9
2023-02-14T05:04:41.169Z,97233.2
2023-02-14T05:05:43.684Z,97233.2
2023-02-14T05:06:45.908Z,97231.5
2023-02-14T05:07:48.558Z,97226.1
2023-02-14T05:08:51.079Z,97229.4
2023-02-14T05:09:53.045Z,97225
2023-02-14T05:10:55.040Z,97225.3
2023-02-14T05:11:57.750Z,97229.1
2023-02-14T05:13:00.071Z,97229.6
2023-02-14T05:14:02.014Z,97232.6
2023-02-14T05:15:04.500Z,97233.9
2023-02-14T05:16:07.253Z,97233.4
2023-02-14T05:17:09.815Z,97231.8
2023-02-14T05:18:12.046Z,97233.7
2023-02-14T05:19:14.782Z,97226.7
2023-02-14T05:20:17.294Z,97226.9
2023-02-14T05:21:19.824Z,97227.4
2023-02-14T05:22:22.334Z,97228.8
2023-02-14T05:23:24.614Z,97228.1
2023-02-14T05:24:27.118Z,97231.9
2023-02-14T05:25:29.622Z,97228.5
2023-02-14T05:26:32.108Z,97225.9
2023-02-14T05:27:34.315Z,97219.7
2023-02-14T05:28:36.914Z,97222
2023-02-14T05:29:39.419Z,97226.3
2023-02-14T05:30:42.556Z,97225.8
2023-02-14T05:31:45.057Z,97225.8
2023-02-14T05:32:47.301Z,97226.9
2023-02-14T05:33:49.255Z,97222.4
2023-02-14T05:34:51.523Z,97221.4
2023-02-14T05:35:54.026Z,97222.8
2023-02-14T05:36:56.314Z,97228.3
2023-02-14T05:37:59.001Z,97226.9
2023-02-14T05:39:01.511Z,97222.3
2023-02-14T05:40:04.023Z,97223.8
2023-02-14T05:41:06.541Z,97218.9
2023-02-14T05:43:10.468Z,97219.5
2023-02-14T05:44:13.079Z,97224.5
2023-02-14T05:45:15.581Z,97225.2
2023-02-14T05:46:18.088Z,97227.1
2023-02-14T05:47:20.575Z,97227.9
2023-02-14T05:48:23.076Z,97227
2023-02-14T05:49:25.591Z,97233.4
2023-02-14T05:50:28.105Z,97222.3
2023-02-14T05:51:30.333Z,97227.1
2023-02-14T05:52:33.628Z,97227.4
2023-02-14T05:53:35.978Z,97230.4
2023-02-14T05:54:38.570Z,97233.2
2023-02-14T05:55:40.799Z,97237.1
2023-02-14T05:56:43.112Z,97237.1
2023-02-14T05:57:45.608Z,97234.3
2023-02-14T05:58:48.122Z,97235.8
2023-02-14T05:59:50.741Z,97234.1
2023-02-14T06:00:52.703Z,97233.4
2023-02-14T06:01:55.501Z,97230.6
2023-02-14T06:02:57.248Z,97235.4
2023-02-14T06:03:59.551Z,97237.3
2023-02-14T06:05:02.302Z,97236.9
2023-02-14T06:06:04.800Z,97242.5
2023-02-14T06:07:07.037Z,97242.3
2023-02-14T06:08:09.538Z,97243.9
2023-02-14T06:09:12.144Z,97238.4
2023-02-14T06:10:14.666Z,97243.1
2023-02-14T06:11:17.174Z,97242.4
2023-02-14T06:12:19.412Z,97239.2
2023-02-14T06:13:21.914Z,97241
2023-02-14T06:14:24.458Z,97238
2023-02-14T06:15:26.788Z,97240.2
2023-02-14T06:16:29.225Z,97240
2023-02-14T06:17:31.853Z,97241
2023-02-14T06:18:34.380Z,97240.5
2023-02-14T06:19:36.867Z,97237.3
2023-02-14T06:20:39.421Z,97238.1
2023-02-14T06:21:41.935Z,97236.4
2023-02-14T06:22:44.450Z,97235.4
2023-02-14T06:23:46.978Z,97235.9
2023-02-14T06:24:49.258Z,97238.6
2023-02-14T06:25:51.772Z,97234.8
2023-02-14T06:26:54.301Z,97234.8
2023-02-14T06:27:56.837Z,97234.9
2023-02-14T06:28:58.799Z,97238.1
2023-02-14T06:30:01.674Z,97243.2
2023-02-14T06:31:06.082Z,97243.9
2023-02-14T06:32:09.651Z,97240.2
2023-02-14T06:33:12.171Z,97239.3
2023-02-14T06:35:19.684Z,97238.5
2023-02-14T06:36:22.211Z,97237.5
2023-02-14T06:37:24.452Z,97238.5
2023-02-14T06:38:26.965Z,97239.6
2023-02-14T06:39:29.208Z,97243
2023-02-14T06:40:31.809Z,97244.7
2023-02-14T06:41:34.063Z,97252.7
2023-02-14T06:42:36.558Z,97249.8
2023-02-14T06:43:38.771Z,97251.2
2023-02-14T06:44:41.399Z,97259.2
2023-02-14T06:45:43.656Z,97253.1
2023-02-14T06:46:46.471Z,97252
2023-02-14T06:47:48.701Z,97253.6
2023-02-14T06:48:51.216Z,97254.4
2023-02-14T06:49:53.454Z,97257.8
2023-02-14T06:50:55.677Z,97253.9
2023-02-14T06:51:57.650Z,97259.4
2023-02-14T06:52:59.692Z,97259.2
2023-02-14T06:54:02.239Z,97252.8
2023-02-14T06:55:04.819Z,97253.6
2023-02-14T06:56:07.387Z,97254.9
2023-02-14T06:57:09.913Z,97249
2023-02-14T06:58:12.180Z,97252.3
2023-02-14T06:59:14.418Z,97243.8
2023-02-14T07:00:16.690Z,97243.7
2023-02-14T07:01:19.177Z,97249.1
2023-02-14T07:02:26.096Z,97245.9
2023-02-14T07:03:28.143Z,97245.4
2023-02-14T07:04:30.712Z,97243.6
2023-02-14T07:05:32.662Z,97240.9
2023-02-14T07:06:34.887Z,97243.9
2023-02-14T07:07:37.391Z,97244.5
2023-02-14T07:08:39.060Z,97244.3
2023-02-14T07:09:41.303Z,97255.7
2023-02-14T07:10:43.253Z,97254.5
2023-02-14T07:11:45.793Z,97251.6
2023-02-14T07:12:48.346Z,97250.6
2023-02-14T07:13:51.178Z,97252.2
2023-02-14T07:14:53.735Z,97246
2023-02-14T07:15:56.607Z,97249.1
2023-02-14T07:16:59.311Z,97246.1
2023-02-14T07:18:01.767Z,97243
2023-02-14T07:19:04.271Z,97243.6
2023-02-14T07:20:06.509Z,97242.6
2023-02-14T07:21:09.031Z,97244
2023-02-14T07:22:11.053Z,97243.1
2023-02-14T07:23:13.600Z,97244.3
2023-02-14T07:24:15.844Z,97238.3
2023-02-14T07:25:18.373Z,97238.8
2023-02-14T07:26:20.605Z,97239.7
2023-02-14T07:27:23.256Z,97239.6
2023-02-14T07:28:25.796Z,97241.3
2023-02-14T07:29:28.088Z,97240
2023-02-14T07:30:30.938Z,97241.9
2023-02-14T07:31:33.972Z,97240
2023-02-14T07:32:36.739Z,97240.6
2023-02-14T07:33:39.337Z,97242.7
2023-02-14T07:34:41.311Z,97245
2023-02-14T07:35:43.548Z,97243.2
2023-02-14T07:36:45.767Z,97235.3
2023-02-14T07:37:48.271Z,97237.1
2023-02-14T07:38:50.503Z,97238.7
2023-02-14T07:39:53.047Z,97242.9
2023-02-14T07:40:54.761Z,97243.3
2023-02-14T07:41:56.477Z,97235.9
2023-02-14T07:42:58.752Z,97239.9
2023-02-14T07:44:01.281Z,97238.1
2023-02-14T07:46:08.736Z,97235.1
2023-02-14T07:47:11.324Z,97231.1
2023-02-14T07:48:13.291Z,97229.5
2023-02-14T07:49:15.885Z,97230
2023-02-14T07:50:18.410Z,97231.1
2023-02-14T07:51:20.658Z,97228.5
2023-02-14T07:52:23.161Z,97225.9
2023-02-14T07:53:25.119Z,97226.2
2023-02-14T07:54:27.367Z,97225.6
2023-02-14T07:55:29.656Z,97225.8
2023-02-14T07:56:31.908Z,97225.8
2023-02-14T07:57:34.448Z,97225.8
2023-02-14T07:58:36.441Z,97219.9
2023-02-14T07:59:38.980Z,97223.2
2023-02-14T08:00:41.487Z,97223.2
2023-02-14T08:01:43.726Z,97218
2023-02-14T08:02:46.058Z,97214.3
2023-02-14T08:03:48.369Z,97210.8
2023-02-14T08:04:51.238Z,97211
2023-02-14T08:05:53.662Z,97212.2
2023-02-14T08:06:55.909Z,97214.1
2023-02-14T08:07:58.309Z,97215.3
2023-02-14T08:09:00.855Z,97219.6
2023-02-14T08:10:03.120Z,97219.1
2023-02-14T08:11:05.640Z,97216.4
2023-02-14T08:12:07.855Z,97212.9
2023-02-14T08:13:10.380Z,97217.5
2023-02-14T08:14:12.671Z,97213.5
2023-02-14T08:15:15.242Z,97212.4
2023-02-14T08:16:17.633Z,97208.3
2023-02-14T08:17:20.385Z,97206.7
2023-02-14T08:18:22.334Z,97211.7
2023-02-14T08:19:24.852Z,97205.5
2023-02-14T08:20:27.645Z,97208.9
2023-02-14T08:21:29.955Z,97205.4
2023-02-14T08:22:32.445Z,97205.9
2023-02-14T08:23:34.982Z,97202.7
2023-02-14T08:24:37.504Z,97204
2023-02-14T08:25:40.043Z,97201.9
2023-02-14T08:26:42.281Z,97203.9
2023-02-14T08:27:44.812Z,97203
2023-02-14T08:28:47.054Z,97198.6
2023-02-14T08:29:49.542Z,97202
2023-02-14T08:30:52.317Z,97206.6
2023-02-14T08:31:55.877Z,97207.7
2023-02-14T08:32:58.541Z,97205
2023-02-14T08:34:01.175Z,97206
2023-02-14T08:35:03.739Z,97209.4
2023-02-14T08:36:06.394Z,97207.6
2023-02-14T08:37:08.650Z,97207.9
2023-02-14T08:38:10.904Z,97207.6
2023-02-14T08:39:13.401Z,97211.5
2023-02-14T08:40:15.938Z,97214.2
2023-02-14T08:41:18.219Z,97209.4
2023-02-14T08:42:20.741Z,97212.4
2023-02-14T08:43:22.995Z,97210.1
2023-02-14T08:44:25.345Z,97211.1
2023-02-14T08:45:27.396Z,97212.4
2023-02-14T08:46:29.991Z,97211.6
2023-02-14T08:47:32.330Z,97209.2
2023-02-14T08:48:37.422Z,97206.1
2023-02-14T08:49:41.400Z,97207.5
2023-02-14T08:50:44.073Z,97210.7
2023-02-14T08:51:46.450Z,97207.3
2023-02-14T08:52:48.982Z,97207.2
2023-02-14T08:53:51.545Z,97211
2023-02-14T08:54:53.322Z,97209.2
2023-02-14T08:55:55.663Z,97216
2023-02-14T08:56:57.896Z,97212.6
2023-02-14T08:58:00.180Z,97216
2023-02-14T08:59:02.824Z,97218.1
2023-02-14T09:00:05.442Z,97215.4
2023-02-14T09:01:08.401Z,97221
2023-02-14T09:02:11.162Z,97219.5
2023-02-14T09:03:13.472Z,97214.8
2023-02-14T09:04:16.071Z,97220
2023-02-14T09:05:18.824Z,97222.9
2023-02-14T09:06:21.451Z,97224
2023-02-14T09:07:24.124Z,97223
2023-02-14T09:08:26.919Z,97225.7
2023-02-14T09:09:29.685Z,97229.5
2023-02-14T09:10:32.441Z,97226
2023-02-14T09:11:34.785Z,97228.9
2023-02-14T09:12:37.175Z,97230
2023-02-14T09:13:39.753Z,97231.8
2023-02-14T09:14:42.386Z,97228.2
2023-02-14T09:15:44.519Z,97227.5
2023-02-14T09:16:47.495Z,97224.7
2023-02-14T09:17:50.084Z,97228.1
2023-02-14T09:18:52.714Z,97227.5
2023-02-14T09:19:55.139Z,97227.4
2023-02-14T09:20:58.872Z,97233.1
2023-02-14T09:22:02.251Z,97231.9
2023-02-14T09:23:04.655Z,97234.9
2023-02-14T09:24:06.044Z,97226.4
2023-02-14T09:25:08.566Z,97229.2
2023-02-14T09:26:11.164Z,97232.4
2023-02-14T09:27:13.684Z,97228.3
2023-02-14T09:28:16.174Z,97227.9
2023-02-14T09:29:18.430Z,97226.9
2023-02-14T09:30:20.693Z,97222.6
2023-02-14T09:31:23.770Z,97226.1
2023-02-14T09:32:26.634Z,97223.5
2023-02-14T09:33:29.170Z,97220.8
2023-02-14T09:34:31.103Z,97223.8
2023-02-14T09:35:33.654Z,97226.2
2023-02-14T09:36:35.945Z,97220.1
2023-02-14T09:37:38.462Z,97221.9
2023-02-14T09:38:41.076Z,97220
2023-02-14T09:39:43.613Z,97220.8
2023-02-14T09:40:45.836Z,97218.5
2023-02-14T09:41:48.078Z,97213.1
2023-02-14T09:42:50.577Z,97215.9
2023-02-14T09:43:52.843Z,97214.2
2023-02-14T09:44:55.357Z,97209.1
2023-02-14T09:45:58.205Z,97208
2023-02-14T09:47:00.813Z,97211.2
2023-02-14T09:48:02.865Z,97216.8
2023-02-14T09:49:05.670Z,97217.6
2023-02-14T09:50:08.513Z,97214.2
2023-02-14T09:51:11.182Z,97211.5
2023-02-14T09:53:19.809Z,97214.1
2023-02-14T09:54:22.470Z,97208.9
2023-02-14T09:55:25.068Z,97212.1
2023-02-14T09:56:27.057Z,97209.5
2023-02-14T09:57:29.529Z,97209.6
2023-02-14T09:58:32.094Z,97205.8
2023-02-14T09:59:34.057Z,97209.4
2023-02-14T10:00:35.995Z,97207.9
2023-02-14T10:01:38.834Z,97213
2023-02-14T10:02:41.551Z,97206.6
2023-02-14T10:03:43.846Z,97206.1
2023-02-14T10:04:46.445Z,97207.4
2023-02-14T10:05:48.952Z,97206.3
2023-02-14T10:06:51.490Z,97205.6
2023-02-14T10:07:53.700Z,97206.9
2023-02-14T10:08:55.955Z,97207
2023-02-14T10:09:58.586Z,97205.8
2023-02-14T10:11:01.904Z,97211
2023-02-14T10:12:04.551Z,97213.7
2023-02-14T10:13:06.781Z,97213.8
2023-02-14T10:14:09.280Z,97214.1
2023-02-14T10:15:11.762Z,97214.8
2023-02-14T10:16:14.203Z,97213.8
2023-02-14T10:17:16.860Z,97212.3
2023-02-14T10:18:18.529Z,97211.9
2023-02-14T10:19:20.538Z,97208.3
2023-02-14T10:20:23.310Z,97210.2
2023-02-14T10:21:25.852Z,97204.2
2023-02-14T10:22:28.367Z,97205.3
2023-02-14T10:23:30.608Z,97205.8
2023-02-14T10:24:32.837Z,97205
2023-02-14T10:25:35.144Z,97202.9
2023-02-14T10:26:37.397Z,97200
2023-02-14T10:27:39.992Z,97197.2
2023-02-14T10:28:42.262Z,97196.9
2023-02-14T10:29:44.776Z,97197.4
2023-02-14T10:30:48.077Z,97196.3
2023-02-14T10:31:50.987Z,97193.4
2023-02-14T10:32:53.630Z,97197
2023-02-14T10:35:01.134Z,97187.8
2023-02-14T10:36:03.674Z,97189.6
2023-02-14T10:37:05.908Z,97187.7
2023-02-14T10:38:07.870Z,97188.3
2023-02-14T10:39:10.108Z,97185.3
2023-02-14T10:40:12.322Z,97185.3
2023-02-14T10:41:14.856Z,97180.9
2023-02-14T10:42:17.205Z,97178.8
2023-02-14T10:43:20.150Z,97181.7
2023-02-14T10:44:22.418Z,97176.3
2023-02-14T10:45:24.977Z,97180.5
2023-02-14T10:46:27.825Z,97177.8
2023-02-14T10:47:30.141Z,97178.2
2023-02-14T10:48:32.675Z,97171.1
2023-02-14T10:49:34.909Z,97171.5
2023-02-14T10:50:37.434Z,97168.5
2023-02-14T10:51:39.962Z,97167.1
2023-02-14T10:52:42.529Z,97170.5
2023-02-14T10:53:44.834Z,97172.6
2023-02-14T10:54:47.062Z,97167.7
2023-02-14T10:55:49.603Z,97168.3
2023-02-14T10:56:52.147Z,97169.2
2023-02-14T10:57:54.672Z,97165
2023-02-14T10:58:57.340Z,97161.4
2023-02-14T11:00:00.130Z,97164.6
2023-02-14T11:01:04.357Z,97162.3
2023-02-14T11:02:07.029Z,97164.6
2023-02-14T11:03:10.002Z,97159
2023-02-14T11:04:12.323Z,97165.8
2023-02-14T11:05:14.543Z,97154.5
2023-02-14T11:06:16.854Z,97155.4
2023-02-14T11:07:19.424Z,97158.1
2023-02-14T11:08:22.223Z,97151.7
2023-02-14T11:09:24.845Z,97147.1
2023-02-14T11:10:26.896Z,97151.2
2023-02-14T11:11:29.416Z,97146.7
2023-02-14T11:12:31.668Z,97143.9
2023-02-14T11:13:34.201Z,97144.8
2023-02-14T11:14:36.545Z,97145.6
2023-02-14T11:15:39.086Z,97141.2
2023-02-14T11:16:41.852Z,97139
2023-02-14T11:17:44.170Z,97138.7
2023-02-14T11:18:46.399Z,97135.3
2023-02-14T11:19:48.914Z,97132.6
2023-02-14T11:20:51.427Z,97127.7
2023-02-14T11:21:53.927Z,97134.8
2023-02-14T11:22:56.159Z,97129.1
2023-02-14T11:23:58.653Z,97126.1
2023-02-14T11:25:04.419Z,97131
2023-02-14T11:26:07.128Z,97127.8
2023-02-14T11:27:09.341Z,97130.1
2023-02-14T11:28:11.534Z,97121.7
2023-02-14T11:29:14.090Z,97128
2023-02-14T11:30:16.635Z,97123.3
2023-02-14T11:31:19.710Z,97118.6
2023-02-14T11:32:22.312Z,97116.7
2023-02-14T11:33:24.257Z,97116.7
2023-02-14T11:34:26.877Z,97115
2023-02-14T11:35:29.097Z,97113.3
2023-02-14T11:36:31.606Z,97111.5
2023-02-14T11:37:33.837Z,97110.3
2023-02-14T11:38:35.835Z,97105.5
2023-02-14T11:39:38.118Z,97102.4
2023-02-14T11:40:40.122Z,97100
2023-02-14T11:41:42.332Z,97097
2023-02-14T11:42:44.309Z,97097.1
2023-02-14T11:43:47.356Z,97095.6
2023-02-14T11:44:49.906Z,97093.2
2023-02-14T11:45:52.410Z,97091.9
2023-02-14T11:46:55.686Z,97096.1
2023-02-14T11:47:58.220Z,97095.7
2023-02-14T11:49:00.168Z,97088.9
2023-02-14T11:50:02.836Z,97090.6
2023-02-14T11:51:05.377Z,97090.2
2023-02-14T11:52:10.843Z,97087.5
2023-02-14T11:53:13.067Z,97085.4
2023-02-14T11:54:15.963Z,97084.4
2023-02-14T11:55:18.172Z,97085.8
2023-02-14T11:56:20.416Z,97084.9
2023-02-14T11:57:22.640Z,97084.4
2023-02-14T11:58:25.137Z,97083
2023-02-14T11:59:27.656Z,97082.8
2023-02-14T12:00:30.185Z,97085.4
2023-02-14T12:01:32.829Z,97082
2023-02-14T12:02:35.244Z,97080.8
2023-02-14T12:03:38.015Z,97076.4
2023-02-14T12:05:45.626Z,97079.8
2023-02-14T12:06:48.162Z,97077.2
2023-02-14T12:07:50.425Z,97077.9
2023-02-14T12:08:52.909Z,97076.1
2023-02-14T12:09:54.843Z,97079.7
2023-02-14T12:10:57.525Z,97080.2
2023-02-14T12:12:00.632Z,97071.4
2023-02-14T12:13:03.160Z,97075.5
2023-02-14T12:14:05.700Z,97070
2023-02-14T12:15:08.212Z,97071.3
2023-02-14T12:16:11.086Z,97066.7
2023-02-14T12:17:13.729Z,97067.2
2023-02-14T12:18:16.255Z,97069.8
2023-02-14T12:19:18.838Z,97068
2023-02-14T12:20:21.351Z,97065.8
2023-02-14T12:21:23.626Z,97068
2023-02-14T12:22:29.497Z,97062.4
2023-02-14T12:23:31.724Z,97065.7
2023-02-14T12:24:34.313Z,97060.7
2023-02-14T12:25:36.744Z,97059
2023-02-14T12:26:39.477Z,97059.5
2023-02-14T12:27:42.024Z,97052.4
2023-02-14T12:28:44.271Z,97054.9
2023-02-14T12:29:46.764Z,97053
2023-02-14T12:30:49.617Z,97052.5
2023-02-14T12:31:52.746Z,97051.9
2023-02-14T12:32:55.616Z,97052.6
2023-02-14T12:33:58.157Z,97056.1
2023-02-14T12:35:00.659Z,97051.1
2023-02-14T12:36:03.414Z,97049.7
2023-02-14T12:37:05.958Z,97047.6
2023-02-14T12:38:08.515Z,97045
2023-02-14T12:39:11.052Z,97043.6
2023-02-14T12:40:13.580Z,97038.5
2023-02-14T12:41:16.128Z,97040.1
2023-02-14T12:42:18.668Z,97036.8
2023-02-14T12:43:20.917Z,97037
2023-02-14T12:44:23.145Z,97035.7
2023-02-14T12:45:25.660Z,97043.3
2023-02-14T12:47:31.645Z,97034.9
2023-02-14T12:48:34.130Z,97038
2023-02-14T12:49:36.667Z,97035.4
2023-02-14T12:50:39.209Z,97033.7
2023-02-14T12:51:41.422Z,97033.2
2023-02-14T12:52:43.681Z,97035.5